createdAt,value
2023-04-15T00:02:15.285Z,0.10
2023-04-15T00:07:18.004Z,0.20
2023-04-15T00:12:19.628Z,0.20
2023-04-15T00:17:21.261Z,0.13
2023-04-15T00:22:22.884Z,0.28
2023-04-15T00:27:24.883Z,0.20
2023-04-15T00:32:26.605Z,0.10
2023-04-15T00:37:28.463Z,0.20
2023-04-15T00:42:30.189Z,0.30
2023-04-15T00:47:33.580Z,0.20
2023-04-15T00:52:36.148Z,0.30
2023-04-15T00:57:39.357Z,0.20
2023-04-15T01:02:41.351Z,0.10
2023-04-15T01:07:43.412Z,0.20
2023-04-15T01:12:45.419Z,0.20
2023-04-15T01:17:48.084Z,0.20
2023-04-15T01:22:50.128Z,0.10
2023-04-15T01:27:51.779Z,0.10
2023-04-15T01:32:53.937Z,0.10
2023-04-15T01:38:03.199Z,0.20
2023-04-15T01:43:04.992Z,0.20
2023-04-15T01:48:07.201Z,0.10
2023-04-15T01:53:12.619Z,0.10
2023-04-15T01:58:15.786Z,0.13
2023-04-15T02:03:18.076Z,0.20
2023-04-15T02:08:19.808Z,0.15
2023-04-15T02:13:21.750Z,0.20
2023-04-15T02:18:24.004Z,0.15
2023-04-15T02:23:25.852Z,0.30
2023-04-15T02:28:27.724Z,0.20
2023-04-15T02:33:29.519Z,0.50
2023-04-15T02:38:32.019Z,0.50
2023-04-15T02:43:33.721Z,0.43
2023-04-15T02:48:36.079Z,0.40
2023-04-15T02:53:38.840Z,0.70
2023-04-15T02:58:40.838Z,0.43
2023-04-15T03:03:44.116Z,0.60
2023-04-15T03:08:46.710Z,0.80
2023-04-15T03:13:48.898Z,0.60
2023-04-15T03:19:00.606Z,0.77
2023-04-15T03:24:03.782Z,0.60
2023-04-15T03:29:05.736Z,0.77
2023-04-15T03:34:07.425Z,0.80
2023-04-15T03:39:09.075Z,0.82
2023-04-15T03:44:10.768Z,1.30
2023-04-15T03:49:14.244Z,1.23
2023-04-15T03:54:15.950Z,1.30
2023-04-15T03:59:17.730Z,1.60
2023-04-15T04:04:19.523Z,1.80
2023-04-15T04:09:21.218Z,1.77
2023-04-15T04:14:29.258Z,1.60
2023-04-15T04:19:31.320Z,1.45
2023-04-15T04:24:32.952Z,1.67
2023-04-15T04:29:34.841Z,1.52
2023-04-15T04:34:36.582Z,2.03
2023-04-15T04:39:38.204Z,1.80
2023-04-15T04:44:39.970Z,2.00
2023-04-15T04:49:41.598Z,1.77
2023-04-15T04:54:43.529Z,2.38
2023-04-15T04:59:45.216Z,2.50
2023-04-15T05:04:46.814Z,2.65
2023-04-15T05:09:48.399Z,2.95
2023-04-15T05:14:50.007Z,3.20
2023-04-15T05:19:51.692Z,3.47
2023-04-15T05:24:53.343Z,2.80
2023-04-15T05:29:55.153Z,3.50
2023-04-15T05:34:56.969Z,3.70
2023-04-15T05:39:58.767Z,3.55
2023-04-15T05:45:00.409Z,2.92
2023-04-15T05:50:02.229Z,1.90
2023-04-15T05:55:03.954Z,2.10
2023-04-15T06:00:06.490Z,2.00
2023-04-15T06:05:14.440Z,1.65
2023-04-15T06:10:16.585Z,1.58
2023-04-15T06:15:18.345Z,1.92
2023-04-15T06:20:20.283Z,1.80
2023-04-15T06:25:22.577Z,1.33
2023-04-15T06:30:24.548Z,1.40
2023-04-15T06:35:27.490Z,1.25
2023-04-15T06:40:29.551Z,1.30
2023-04-15T06:45:31.721Z,1.15
2023-04-15T06:50:33.719Z,0.95
2023-04-15T06:55:35.434Z,0.90
2023-04-15T07:00:39.071Z,1.00
2023-04-15T07:05:41.425Z,1.10
2023-04-15T07:10:43.242Z,0.60
2023-04-15T07:15:45.752Z,1.20
2023-04-15T07:20:48.017Z,0.70
2023-04-15T07:25:49.606Z,1.13
2023-04-15T07:30:51.688Z,0.73
2023-04-15T07:35:53.577Z,0.68
2023-04-15T07:40:55.560Z,0.80
2023-04-15T07:45:57.427Z,0.75
2023-04-15T07:50:59.144Z,0.60
2023-04-15T07:56:00.950Z,0.50
2023-04-15T08:01:02.805Z,0.50
2023-04-15T08:06:04.736Z,0.60
2023-04-15T08:11:06.355Z,0.40
2023-04-15T08:16:14.429Z,0.47
2023-04-15T08:21:17.771Z,0.57
2023-04-15T08:26:21.108Z,0.60
2023-04-15T08:31:23.348Z,0.32
2023-04-15T08:36:25.089Z,0.60
2023-04-15T08:41:30.884Z,0.38
2023-04-15T08:46:36.554Z,0.40
2023-04-15T08:51:40.763Z,0.40
2023-04-15T08:56:42.660Z,0.20
2023-04-15T09:01:44.894Z,0.30
2023-04-15T09:06:47.150Z,0.10
2023-04-15T09:11:50.173Z,0.10
2023-04-15T09:17:05.173Z,0.40
2023-04-15T09:22:06.966Z,0.25
2023-04-15T09:27:08.699Z,0.20
2023-04-15T09:32:14.758Z,0.00
2023-04-15T09:37:31.816Z,0.10
2023-04-15T09:42:34.081Z,0.30
2023-04-15T09:47:35.811Z,0.30
2023-04-15T09:52:43.445Z,0.40
2023-04-15T09:57:47.145Z,0.40
2023-04-15T10:02:49.726Z,0.22
2023-04-15T10:07:51.705Z,0.40
2023-04-15T10:12:54.656Z,0.30
2023-04-15T10:17:58.379Z,0.40
2023-04-15T10:23:02.169Z,0.40
2023-04-15T10:28:04.788Z,0.10
2023-04-15T10:33:09.219Z,0.32
2023-04-15T10:38:38.813Z,1.60
2023-04-15T10:43:46.364Z,0.50
2023-04-15T10:48:53.137Z,0.32
2023-04-15T10:54:00.145Z,0.20
2023-04-15T10:59:02.064Z,0.20
2023-04-15T11:04:04.158Z,0.10
2023-04-15T11:09:09.608Z,0.20
2023-04-15T11:14:16.342Z,0.03
2023-04-15T11:19:18.061Z,0.15
2023-04-15T11:24:28.572Z,0.10
2023-04-15T11:29:35.068Z,0.05
2023-04-15T11:34:37.169Z,0.10
2023-04-15T11:39:38.805Z,0.08
2023-04-15T11:44:40.796Z,0.30
2023-04-15T11:49:42.620Z,0.10
2023-04-15T11:54:44.491Z,0.20
2023-04-15T11:59:46.386Z,0.20
2023-04-15T12:04:48.236Z,0.13
2023-04-15T12:09:56.708Z,0.40
2023-04-15T12:14:59.452Z,2.95
2023-04-15T12:20:01.119Z,0.50
2023-04-15T12:25:03.094Z,0.47
2023-04-15T12:30:05.933Z,0.30
2023-04-15T12:35:08.066Z,0.20
2023-04-15T12:40:10.444Z,0.20
2023-04-15T12:45:12.062Z,0.22
2023-04-15T12:50:13.657Z,0.80
2023-04-15T12:55:15.729Z,1.00
2023-04-15T13:00:17.745Z,0.93
2023-04-15T13:05:19.613Z,0.40
2023-04-15T13:10:22.186Z,0.45
2023-04-15T13:15:24.173Z,0.60
2023-04-15T13:20:27.023Z,0.47
2023-04-15T13:25:29.013Z,0.60
2023-04-15T13:30:31.325Z,0.57
2023-04-15T13:35:33.799Z,0.65
2023-04-15T13:40:35.548Z,0.40
2023-04-15T13:45:37.401Z,0.63
2023-04-15T13:50:41.177Z,0.40
2023-04-15T13:55:43.311Z,0.60
2023-04-15T14:00:45.135Z,0.20
2023-04-15T14:05:46.795Z,0.28
2023-04-15T14:10:49.493Z,0.40
2023-04-15T14:15:51.233Z,0.30
2023-04-15T14:20:53.289Z,0.20
2023-04-15T14:25:54.946Z,0.68
2023-04-15T14:30:56.611Z,2.17
2023-04-15T14:35:58.318Z,2.20
2023-04-15T14:40:59.992Z,0.82
2023-04-15T14:46:02.040Z,4.43
2023-04-15T14:51:04.071Z,0.30
2023-04-15T14:56:06.125Z,0.43
2023-04-15T15:01:08.389Z,0.60
2023-04-15T15:06:10.115Z,0.30
2023-04-15T15:11:11.840Z,0.70
2023-04-15T15:16:14.643Z,0.50
2023-04-15T15:21:16.593Z,0.70
2023-04-15T15:26:19.410Z,0.30
2023-04-15T15:31:21.278Z,0.90
2023-04-15T15:36:22.988Z,0.63
2023-04-15T15:41:25.585Z,5.13
2023-04-15T15:46:31.337Z,0.75
2023-04-15T15:51:33.422Z,0.73
2023-04-15T15:56:35.126Z,0.90
2023-04-15T16:01:37.004Z,1.05
2023-04-15T16:06:38.667Z,7.05
2023-04-15T16:11:41.309Z,6.35
2023-04-15T16:16:43.044Z,2.83
2023-04-15T16:21:44.904Z,1.95
2023-04-15T16:26:46.628Z,1.10
2023-04-15T16:31:48.333Z,0.60
2023-04-15T16:36:50.209Z,0.57
2023-04-15T16:41:52.025Z,0.43
2023-04-15T16:46:54.552Z,0.30
2023-04-15T16:51:57.084Z,0.60
2023-04-15T16:56:58.783Z,43.42
2023-04-15T17:02:00.821Z,32.33
2023-04-15T17:07:02.644Z,23.70
2023-04-15T17:12:04.786Z,9.77
2023-04-15T17:17:06.924Z,0.90
2023-04-15T17:22:08.676Z,0.70
2023-04-15T17:27:10.544Z,0.38
2023-04-15T17:32:12.254Z,0.63
2023-04-15T17:37:13.883Z,0.50
2023-04-15T17:42:15.923Z,0.50
2023-04-15T17:47:17.612Z,0.75
2023-04-15T17:52:19.214Z,0.50
2023-04-15T17:57:20.863Z,0.40
2023-04-15T18:02:22.866Z,0.52
2023-04-15T18:07:24.641Z,0.40
2023-04-15T18:12:26.555Z,1.00
2023-04-15T18:17:28.355Z,1.00
2023-04-15T18:22:29.980Z,0.50
2023-04-15T18:27:33.126Z,1.13
2023-04-15T18:32:34.956Z,1.30
2023-04-15T18:37:36.666Z,2.28
2023-04-15T18:42:38.490Z,2.53
2023-04-15T18:47:40.282Z,1.77
2023-04-15T18:52:41.986Z,2.80
2023-04-15T18:57:45.015Z,1.63
2023-04-15T19:02:47.037Z,1.20
2023-04-15T19:07:50.514Z,1.60
2023-04-15T19:12:52.155Z,1.70
2023-04-15T19:17:53.771Z,1.85
2023-04-15T19:22:55.862Z,1.88
2023-04-15T19:27:59.549Z,1.77
2023-04-15T19:33:01.813Z,1.80
2023-04-15T19:38:05.371Z,1.98
2023-04-15T19:43:07.203Z,1.73
2023-04-15T19:48:08.968Z,1.13
2023-04-15T19:53:10.832Z,0.90
2023-04-15T19:58:12.651Z,0.93
2023-04-15T20:03:14.775Z,1.00
2023-04-15T20:08:16.507Z,0.80
2023-04-15T20:13:18.122Z,1.00
2023-04-15T20:18:19.831Z,0.90
2023-04-15T20:23:21.434Z,1.20
2023-04-15T20:28:26.094Z,1.67
2023-04-15T20:33:27.795Z,1.80
2023-04-15T20:38:29.416Z,1.30
2023-04-15T20:43:31.318Z,1.33
2023-04-15T20:48:32.939Z,1.35
2023-04-15T20:53:34.684Z,1.67
2023-04-15T20:58:36.386Z,1.30
2023-04-15T21:03:38.259Z,1.40
2023-04-15T21:08:39.957Z,1.33
2023-04-15T21:13:41.778Z,0.95
2023-04-15T21:18:43.582Z,1.23
2023-04-15T21:23:45.282Z,1.20
2023-04-15T21:28:47.065Z,1.13
2023-04-15T21:33:48.777Z,0.98
2023-04-15T21:38:50.408Z,1.20
2023-04-15T21:43:53.071Z,1.27
2023-04-15T21:48:55.352Z,1.20
2023-04-15T21:53:57.035Z,1.00
2023-04-15T21:58:58.741Z,0.90
2023-04-15T22:09:02.215Z,1.60
2023-04-15T22:14:03.944Z,2.78
2023-04-15T22:19:06.381Z,4.30
2023-04-15T22:24:33.236Z,2.00
2023-04-15T22:29:30.040Z,1.85
2023-04-15T22:34:31.674Z,1.08
2023-04-15T22:39:33.296Z,1.40
2023-04-15T22:44:34.979Z,1.90
2023-04-15T22:49:36.560Z,2.50
2023-04-15T22:54:38.174Z,2.47
2023-04-15T22:59:39.798Z,2.63
2023-04-15T23:04:41.477Z,2.40
2023-04-15T23:09:43.250Z,1.70
2023-04-15T23:14:44.897Z,1.80
2023-04-15T23:19:46.533Z,2.50
2023-04-15T23:24:48.172Z,1.55
2023-04-15T23:29:49.784Z,1.90
2023-04-15T23:34:52.238Z,2.30
2023-04-15T23:39:55.731Z,2.60
2023-04-15T23:44:57.386Z,2.13
2023-04-15T23:49:59.019Z,2.80
2023-04-15T23:55:00.995Z,2.17
